<?xml version="1.0" encoding="UTF-8" standalone="no" ?>
<gpx xmlns="http://www.topografix.com/GPX/1/1" xmlns:xsi="http://www.w3.org/2001/XMLSchema-instance" xsi:schemaLocation="http://www.topografix.com/GPX/1/1 http://www.topografix.com/GPX/1/1/gpx.xsd" version="1.1" creator="VisuGPX - https://www.visugpx.com">
  <metadata>
    <name>Arêches-Col de la Louze</name>
    <desc><![CDATA[Carte IGN TOP25 : 3532OT
Niveau D.
Départ d'Arêches-Le Mappaz.

]]></desc>
  </metadata>
  <trk>
    <name><![CDATA[Arèches-Col de la Louze]]></name>
    <extensions>
      <line xmlns="http://www.topografix.com/GPX/gpx_style/0/2">
        <color>0000FF</color>
        <width>4</width>
      </line>
    </extensions>
    <trkseg>
      <trkpt lat="45.67534" lon="6.57857">
        <ele>1281</ele>
        <time>2020-12-16T08:00:00.839Z</time>
      </trkpt>
      <trkpt lat="45.67318" lon="6.57951">
        <ele>1308</ele>
        <time>2020-12-16T08:07:09.724Z</time>
      </trkpt>
      <trkpt lat="45.67246" lon="6.57963">
        <ele>1318</ele>
        <time>2020-12-16T08:09:30.814Z</time>
      </trkpt>
      <trkpt lat="45.67162" lon="6.57856">
        <ele>1334</ele>
        <time>2020-12-16T08:12:58.058Z</time>
      </trkpt>
      <trkpt lat="45.67084" lon="6.57787">
        <ele>1344</ele>
        <time>2020-12-16T08:15:30.703Z</time>
      </trkpt>
      <trkpt lat="45.66961" lon="6.57787">
        <ele>1356</ele>
        <time>2020-12-16T08:18:49.136Z</time>
      </trkpt>
      <trkpt lat="45.66902" lon="6.57807">
        <ele>1361</ele>
        <time>2020-12-16T08:20:26.362Z</time>
      </trkpt>
      <trkpt lat="45.66784" lon="6.57805">
        <ele>1372</ele>
        <time>2020-12-16T08:23:37.643Z</time>
      </trkpt>
      <trkpt lat="45.66564" lon="6.57901">
        <ele>1396</ele>
        <time>2020-12-16T08:30:03.454Z</time>
      </trkpt>
      <trkpt lat="45.66424" lon="6.57925">
        <ele>1410</ele>
        <time>2020-12-16T08:33:50.407Z</time>
      </trkpt>
      <trkpt lat="45.66327" lon="6.57894">
        <ele>1418</ele>
        <time>2020-12-16T08:36:24.436Z</time>
      </trkpt>
      <trkpt lat="45.66263" lon="6.57855">
        <ele>1422</ele>
        <time>2020-12-16T08:38:10.879Z</time>
      </trkpt>
      <trkpt lat="45.66097" lon="6.57834">
        <ele>1431</ele>
        <time>2020-12-16T08:42:28.646Z</time>
      </trkpt>
      <trkpt lat="45.65987" lon="6.57837">
        <ele>1441</ele>
        <time>2020-12-16T08:45:25.817Z</time>
      </trkpt>
      <trkpt lat="45.65978" lon="6.57876">
        <ele>1444</ele>
        <time>2020-12-16T08:46:20.917Z</time>
      </trkpt>
      <trkpt lat="45.65898" lon="6.579">
        <ele>1456</ele>
        <time>2020-12-16T08:49:21.653Z</time>
      </trkpt>
      <trkpt lat="45.65773" lon="6.57959">
        <ele>1483</ele>
        <time>2020-12-16T08:54:46.673Z</time>
      </trkpt>
      <trkpt lat="45.6559" lon="6.58058">
        <ele>1527</ele>
        <time>2020-12-16T09:02:46.336Z</time>
      </trkpt>
      <trkpt lat="45.65524" lon="6.58028">
        <ele>1540</ele>
        <time>2020-12-16T09:05:09.451Z</time>
      </trkpt>
      <trkpt lat="45.65454" lon="6.58011">
        <ele>1545.3</ele>
        <time>2020-12-16T09:07:56.252Z</time>
      </trkpt>
      <trkpt lat="45.6541" lon="6.57999">
        <ele>1551</ele>
      </trkpt>
      <trkpt lat="45.65374" lon="6.5798">
        <ele>1559</ele>
        <time>2020-12-16T09:09:37.138Z</time>
      </trkpt>
      <trkpt lat="45.65302" lon="6.5798">
        <ele>1563</ele>
        <time>2020-12-16T09:11:24.644Z</time>
      </trkpt>
      <trkpt lat="45.65224" lon="6.58023">
        <ele>1566</ele>
        <time>2020-12-16T09:13:23.099Z</time>
      </trkpt>
      <trkpt lat="45.65154" lon="6.58076">
        <ele>1576</ele>
      </trkpt>
      <trkpt lat="45.65115" lon="6.58072">
        <ele>1576.2</ele>
      </trkpt>
      <trkpt lat="45.65099" lon="6.58097">
        <ele>1578</ele>
        <time>2020-12-16T09:16:48.774Z</time>
      </trkpt>
      <trkpt lat="45.65096" lon="6.5812">
        <ele>1576.2</ele>
        <time>2020-12-16T09:16:58.068Z</time>
      </trkpt>
      <trkpt lat="45.65111" lon="6.58187">
        <ele>1576.2</ele>
      </trkpt>
      <trkpt lat="45.65119" lon="6.58252">
        <ele>1576.3</ele>
        <time>2020-12-16T09:19:10.956Z</time>
      </trkpt>
      <trkpt lat="45.65107" lon="6.58261">
        <ele>1572.4</ele>
        <time>2020-12-16T09:19:20.250Z</time>
      </trkpt>
      <trkpt lat="45.65093" lon="6.58181">
        <ele>1568.6</ele>
      </trkpt>
      <trkpt lat="45.65063" lon="6.58082">
        <ele>1564</ele>
      </trkpt>
      <trkpt lat="45.65065" lon="6.58055">
        <ele>1558.9</ele>
        <time>2020-12-16T09:22:47.721Z</time>
      </trkpt>
      <trkpt lat="45.65039" lon="6.58021">
        <ele>1543.1</ele>
      </trkpt>
      <trkpt lat="45.65025" lon="6.57988">
        <ele>1526.9</ele>
        <time>2020-12-16T09:24:01.989Z</time>
      </trkpt>
      <trkpt lat="45.65016" lon="6.57915">
        <ele>1515.1</ele>
        <time>2020-12-16T09:25:18.505Z</time>
      </trkpt>
      <trkpt lat="45.65026" lon="6.57854">
        <ele>1525.6</ele>
      </trkpt>
      <trkpt lat="45.65057" lon="6.57799">
        <ele>1560.1</ele>
      </trkpt>
      <trkpt lat="45.65044" lon="6.5779">
        <ele>1565.9</ele>
        <time>2020-12-16T09:27:35.932Z</time>
      </trkpt>
      <trkpt lat="45.65023" lon="6.57786">
        <ele>1564.9</ele>
      </trkpt>
      <trkpt lat="45.64921" lon="6.57771">
        <ele>1566.5</ele>
        <time>2020-12-16T09:30:45.936Z</time>
      </trkpt>
      <trkpt lat="45.64817" lon="6.57744">
        <ele>1573.3</ele>
      </trkpt>
      <trkpt lat="45.64783" lon="6.57751">
        <ele>1567.6</ele>
      </trkpt>
      <trkpt lat="45.64737" lon="6.57736">
        <ele>1570.5</ele>
        <time>2020-12-16T09:35:18.312Z</time>
      </trkpt>
      <trkpt lat="45.64573" lon="6.57719">
        <ele>1564</ele>
        <time>2020-12-16T09:38:56.105Z</time>
      </trkpt>
      <trkpt lat="45.64498" lon="6.57714">
        <ele>1564</ele>
        <time>2020-12-16T09:40:39.668Z</time>
      </trkpt>
      <trkpt lat="45.6442" lon="6.57697">
        <ele>1564</ele>
        <time>2020-12-16T09:42:28.566Z</time>
      </trkpt>
      <trkpt lat="45.64397" lon="6.57699">
        <ele>1566.2</ele>
      </trkpt>
      <trkpt lat="45.64314" lon="6.5767">
        <ele>1565.8</ele>
        <time>2020-12-16T09:44:07.906Z</time>
      </trkpt>
      <trkpt lat="45.64216" lon="6.57629">
        <ele>1564</ele>
        <time>2020-12-16T09:47:21.915Z</time>
      </trkpt>
      <trkpt lat="45.64186" lon="6.57581">
        <ele>1564</ele>
        <time>2020-12-16T09:48:24.809Z</time>
      </trkpt>
      <trkpt lat="45.64141" lon="6.57573">
        <ele>1565</ele>
        <time>2020-12-16T09:49:30.205Z</time>
      </trkpt>
      <trkpt lat="45.64093" lon="6.57483">
        <ele>1567</ele>
        <time>2020-12-16T09:51:28.460Z</time>
      </trkpt>
      <trkpt lat="45.64042" lon="6.57444">
        <ele>1571</ele>
        <time>2020-12-16T09:53:00.862Z</time>
      </trkpt>
      <trkpt lat="45.63997" lon="6.5744">
        <ele>1576</ele>
        <time>2020-12-16T09:54:21.260Z</time>
      </trkpt>
      <trkpt lat="45.63993" lon="6.57373">
        <ele>1582</ele>
        <time>2020-12-16T09:55:55.467Z</time>
      </trkpt>
      <trkpt lat="45.63931" lon="6.57338">
        <ele>1593</ele>
        <time>2020-12-16T09:58:30.626Z</time>
      </trkpt>
      <trkpt lat="45.63878" lon="6.57231">
        <ele>1613</ele>
        <time>2020-12-16T10:02:37.095Z</time>
      </trkpt>
      <trkpt lat="45.63786" lon="6.57109">
        <ele>1645</ele>
        <time>2020-12-16T10:08:31.849Z</time>
      </trkpt>
      <trkpt lat="45.63686" lon="6.57062">
        <ele>1671</ele>
        <time>2020-12-16T10:13:14.988Z</time>
      </trkpt>
      <trkpt lat="45.63649" lon="6.57062">
        <ele>1679</ele>
        <time>2020-12-16T10:14:45.227Z</time>
      </trkpt>
      <trkpt lat="45.63616" lon="6.57023">
        <ele>1688</ele>
        <time>2020-12-16T10:16:24.046Z</time>
      </trkpt>
      <trkpt lat="45.63618" lon="6.56982">
        <ele>1693</ele>
        <time>2020-12-16T10:17:23.392Z</time>
      </trkpt>
      <trkpt lat="45.63568" lon="6.5692">
        <ele>1703</ele>
        <time>2020-12-16T10:19:28.179Z</time>
      </trkpt>
      <trkpt lat="45.63488" lon="6.56837">
        <ele>1715</ele>
        <time>2020-12-16T10:22:22.884Z</time>
      </trkpt>
      <trkpt lat="45.63461" lon="6.56769">
        <ele>1721</ele>
        <time>2020-12-16T10:24:03.548Z</time>
      </trkpt>
      <trkpt lat="45.6341" lon="6.56684">
        <ele>1732</ele>
        <time>2020-12-16T10:26:41.817Z</time>
      </trkpt>
      <trkpt lat="45.63392" lon="6.56614">
        <ele>1741</ele>
        <time>2020-12-16T10:28:40.805Z</time>
      </trkpt>
      <trkpt lat="45.63331" lon="6.56555">
        <ele>1756</ele>
        <time>2020-12-16T10:31:43.847Z</time>
      </trkpt>
      <trkpt lat="45.633" lon="6.56583">
        <ele>1765</ele>
        <time>2020-12-16T10:33:37.222Z</time>
      </trkpt>
      <trkpt lat="45.63238" lon="6.56533">
        <ele>1786</ele>
        <time>2020-12-16T10:37:42.124Z</time>
      </trkpt>
      <trkpt lat="45.63184" lon="6.5645">
        <ele>1811</ele>
        <time>2020-12-16T10:42:29.779Z</time>
      </trkpt>
      <trkpt lat="45.63146" lon="6.56361">
        <ele>1835</ele>
        <time>2020-12-16T10:47:04.993Z</time>
      </trkpt>
      <trkpt lat="45.63099" lon="6.56299">
        <ele>1857</ele>
        <time>2020-12-16T10:51:08.288Z</time>
      </trkpt>
      <trkpt lat="45.63031" lon="6.56244">
        <ele>1883</ele>
        <time>2020-12-16T10:55:54.309Z</time>
      </trkpt>
      <trkpt lat="45.62975" lon="6.56147">
        <ele>1911</ele>
        <time>2020-12-16T11:00:59.423Z</time>
      </trkpt>
      <trkpt lat="45.62944" lon="6.56077">
        <ele>1928</ele>
        <time>2020-12-16T11:04:09.047Z</time>
      </trkpt>
      <trkpt lat="45.62911" lon="6.56026">
        <ele>1942</ele>
        <time>2020-12-16T11:06:45.711Z</time>
      </trkpt>
      <trkpt lat="45.62874" lon="6.55998">
        <ele>1954</ele>
        <time>2020-12-16T11:08:58.144Z</time>
      </trkpt>
      <trkpt lat="45.62785" lon="6.55952">
        <ele>1980</ele>
        <time>2020-12-16T11:13:55.764Z</time>
      </trkpt>
      <trkpt lat="45.62768" lon="6.55904">
        <ele>1991</ele>
        <time>2020-12-16T11:15:49.824Z</time>
      </trkpt>
      <trkpt lat="45.6271" lon="6.55796">
        <ele>2016</ele>
        <time>2020-12-16T11:20:37.369Z</time>
      </trkpt>
      <trkpt lat="45.6262" lon="6.5565">
        <ele>2053</ele>
        <time>2020-12-16T11:27:27.816Z</time>
      </trkpt>
      <trkpt lat="45.62598" lon="6.55635">
        <ele>2059</ele>
        <time>2020-12-16T11:28:41.358Z</time>
      </trkpt>
      <trkpt lat="45.62537" lon="6.55569">
        <ele>2080</ele>
        <time>2020-12-16T11:32:37.662Z</time>
      </trkpt>
      <trkpt lat="45.62482" lon="6.55487">
        <ele>2102</ele>
        <time>2020-12-16T11:36:48.314Z</time>
      </trkpt>
      <trkpt lat="45.62435" lon="6.55442">
        <ele>2118</ele>
        <time>2020-12-16T11:39:48.314Z</time>
      </trkpt>
      <trkpt lat="45.62482" lon="6.55487">
        <ele>2102</ele>
        <time>2020-12-16T12:32:04.604Z</time>
      </trkpt>
      <trkpt lat="45.62537" lon="6.55569">
        <ele>2080</ele>
        <time>2020-12-16T12:35:01.103Z</time>
      </trkpt>
      <trkpt lat="45.62598" lon="6.55635">
        <ele>2059</ele>
        <time>2020-12-16T12:37:46.867Z</time>
      </trkpt>
      <trkpt lat="45.6262" lon="6.5565">
        <ele>2053</ele>
        <time>2020-12-16T12:38:39.713Z</time>
      </trkpt>
      <trkpt lat="45.6271" lon="6.55796">
        <ele>2016</ele>
        <time>2020-12-16T12:43:35.386Z</time>
      </trkpt>
      <trkpt lat="45.62768" lon="6.55904">
        <ele>1991</ele>
        <time>2020-12-16T12:47:04.326Z</time>
      </trkpt>
      <trkpt lat="45.62785" lon="6.55952">
        <ele>1980</ele>
        <time>2020-12-16T12:48:28.685Z</time>
      </trkpt>
      <trkpt lat="45.62874" lon="6.55998">
        <ele>1954</ele>
        <time>2020-12-16T12:51:58.510Z</time>
      </trkpt>
      <trkpt lat="45.62911" lon="6.56026">
        <ele>1942</ele>
        <time>2020-12-16T12:53:35.104Z</time>
      </trkpt>
      <trkpt lat="45.62944" lon="6.56077">
        <ele>1928</ele>
        <time>2020-12-16T12:55:28.260Z</time>
      </trkpt>
      <trkpt lat="45.62975" lon="6.56147">
        <ele>1911</ele>
        <time>2020-12-16T12:57:51.290Z</time>
      </trkpt>
      <trkpt lat="45.63031" lon="6.56244">
        <ele>1883</ele>
        <time>2020-12-16T13:01:39.897Z</time>
      </trkpt>
      <trkpt lat="45.63099" lon="6.56299">
        <ele>1857</ele>
        <time>2020-12-16T13:05:10.887Z</time>
      </trkpt>
      <trkpt lat="45.63146" lon="6.56361">
        <ele>1835</ele>
        <time>2020-12-16T13:08:03.179Z</time>
      </trkpt>
      <trkpt lat="45.63184" lon="6.5645">
        <ele>1811</ele>
        <time>2020-12-16T13:11:10.624Z</time>
      </trkpt>
      <trkpt lat="45.63238" lon="6.56533">
        <ele>1786</ele>
        <time>2020-12-16T13:14:24.472Z</time>
      </trkpt>
      <trkpt lat="45.633" lon="6.56583">
        <ele>1765</ele>
        <time>2020-12-16T13:17:03.850Z</time>
      </trkpt>
      <trkpt lat="45.63331" lon="6.56555">
        <ele>1756</ele>
        <time>2020-12-16T13:18:13.027Z</time>
      </trkpt>
      <trkpt lat="45.63392" lon="6.56614">
        <ele>1741</ele>
        <time>2020-12-16T13:20:24.290Z</time>
      </trkpt>
      <trkpt lat="45.6341" lon="6.56684">
        <ele>1732</ele>
        <time>2020-12-16T13:21:46.979Z</time>
      </trkpt>
      <trkpt lat="45.63461" lon="6.56769">
        <ele>1721</ele>
        <time>2020-12-16T13:23:45.937Z</time>
      </trkpt>
      <trkpt lat="45.63488" lon="6.56837">
        <ele>1715</ele>
        <time>2020-12-16T13:25:07.731Z</time>
      </trkpt>
      <trkpt lat="45.63568" lon="6.5692">
        <ele>1703</ele>
        <time>2020-12-16T13:27:38.448Z</time>
      </trkpt>
      <trkpt lat="45.63618" lon="6.56982">
        <ele>1693</ele>
        <time>2020-12-16T13:29:24.782Z</time>
      </trkpt>
      <trkpt lat="45.63616" lon="6.57023">
        <ele>1688</ele>
        <time>2020-12-16T13:30:16.859Z</time>
      </trkpt>
      <trkpt lat="45.63649" lon="6.57062">
        <ele>1679</ele>
        <time>2020-12-16T13:31:37.615Z</time>
      </trkpt>
      <trkpt lat="45.63686" lon="6.57062">
        <ele>1671</ele>
        <time>2020-12-16T13:32:52.429Z</time>
      </trkpt>
      <trkpt lat="45.63786" lon="6.57109">
        <ele>1645</ele>
        <time>2020-12-16T13:36:32.301Z</time>
      </trkpt>
      <trkpt lat="45.63878" lon="6.57231">
        <ele>1613</ele>
        <time>2020-12-16T13:40:46.850Z</time>
      </trkpt>
      <trkpt lat="45.63931" lon="6.57338">
        <ele>1593</ele>
        <time>2020-12-16T13:43:31.510Z</time>
      </trkpt>
      <trkpt lat="45.63993" lon="6.57373">
        <ele>1582</ele>
        <time>2020-12-16T13:45:15.926Z</time>
      </trkpt>
      <trkpt lat="45.63997" lon="6.5744">
        <ele>1576</ele>
        <time>2020-12-16T13:46:27.028Z</time>
      </trkpt>
      <trkpt lat="45.64042" lon="6.57444">
        <ele>1571</ele>
        <time>2020-12-16T13:47:32.071Z</time>
      </trkpt>
      <trkpt lat="45.64093" lon="6.57483">
        <ele>1567</ele>
        <time>2020-12-16T13:48:51.739Z</time>
      </trkpt>
      <trkpt lat="45.64141" lon="6.57573">
        <ele>1565</ele>
        <time>2020-12-16T13:50:41.237Z</time>
      </trkpt>
      <trkpt lat="45.64186" lon="6.57581">
        <ele>1564</ele>
        <time>2020-12-16T13:51:43.880Z</time>
      </trkpt>
      <trkpt lat="45.64216" lon="6.57629">
        <ele>1564</ele>
        <time>2020-12-16T13:52:45.524Z</time>
      </trkpt>
      <trkpt lat="45.64316" lon="6.57668">
        <ele>1566.8</ele>
        <time>2020-12-16T13:55:59.533Z</time>
      </trkpt>
      <trkpt lat="45.64403" lon="6.57698">
        <ele>1567.1</ele>
        <time>2020-12-16T13:57:38.873Z</time>
      </trkpt>
      <trkpt lat="45.64498" lon="6.57714">
        <ele>1564</ele>
        <time>2020-12-16T13:59:27.771Z</time>
      </trkpt>
      <trkpt lat="45.64573" lon="6.57719">
        <ele>1564</ele>
        <time>2020-12-16T14:01:11.334Z</time>
      </trkpt>
      <trkpt lat="45.64736" lon="6.57736">
        <ele>1570.5</ele>
        <time>2020-12-16T14:04:45.726Z</time>
      </trkpt>
      <trkpt lat="45.64779" lon="6.57752">
        <ele>1567.2</ele>
      </trkpt>
      <trkpt lat="45.64816" lon="6.57745">
        <ele>1571.9</ele>
      </trkpt>
      <trkpt lat="45.64922" lon="6.57769">
        <ele>1567.9</ele>
        <time>2020-12-16T14:09:09.753Z</time>
      </trkpt>
      <trkpt lat="45.65056" lon="6.57795">
        <ele>1563.7</ele>
        <time>2020-12-16T14:12:12.536Z</time>
      </trkpt>
      <trkpt lat="45.65027" lon="6.57853">
        <ele>1526</ele>
      </trkpt>
      <trkpt lat="45.65014" lon="6.57916">
        <ele>1516.7</ele>
        <time>2020-12-16T14:14:31.040Z</time>
      </trkpt>
      <trkpt lat="45.65025" lon="6.57988">
        <ele>1526.9</ele>
        <time>2020-12-16T14:15:50.115Z</time>
      </trkpt>
      <trkpt lat="45.6504" lon="6.58019">
        <ele>1542.1</ele>
      </trkpt>
      <trkpt lat="45.65065" lon="6.5805">
        <ele>1556.2</ele>
        <time>2020-12-16T14:17:07.707Z</time>
      </trkpt>
      <trkpt lat="45.65062" lon="6.58084">
        <ele>1563.2</ele>
      </trkpt>
      <trkpt lat="45.65098" lon="6.58187">
        <ele>1570.7</ele>
      </trkpt>
      <trkpt lat="45.65108" lon="6.58259">
        <ele>1572.6</ele>
        <time>2020-12-16T14:20:45.651Z</time>
      </trkpt>
      <trkpt lat="45.65118" lon="6.58253">
        <ele>1575.8</ele>
        <time>2020-12-16T14:20:55.414Z</time>
      </trkpt>
      <trkpt lat="45.6511" lon="6.58187">
        <ele>1575.9</ele>
      </trkpt>
      <trkpt lat="45.65093" lon="6.58118">
        <ele>1575.3</ele>
        <time>2020-12-16T14:23:13.910Z</time>
      </trkpt>
      <trkpt lat="45.65101" lon="6.5809">
        <ele>1578.5</ele>
        <time>2020-12-16T14:23:23.597Z</time>
      </trkpt>
      <trkpt lat="45.65115" lon="6.58078">
        <ele>1578.6</ele>
      </trkpt>
      <trkpt lat="45.65155" lon="6.58079">
        <ele>1578.5</ele>
      </trkpt>
      <trkpt lat="45.65224" lon="6.58023">
        <ele>1566</ele>
        <time>2020-12-16T14:26:49.726Z</time>
      </trkpt>
      <trkpt lat="45.65302" lon="6.5798">
        <ele>1563</ele>
        <time>2020-12-16T14:28:45.108Z</time>
      </trkpt>
      <trkpt lat="45.65374" lon="6.5798">
        <ele>1559</ele>
        <time>2020-12-16T14:30:26.865Z</time>
      </trkpt>
      <trkpt lat="45.65408" lon="6.57995">
        <ele>1549.4</ele>
      </trkpt>
      <trkpt lat="45.65458" lon="6.58009">
        <ele>1543.7</ele>
        <time>2020-12-16T14:32:03.791Z</time>
      </trkpt>
      <trkpt lat="45.65524" lon="6.58028">
        <ele>1540</ele>
        <time>2020-12-16T14:34:34.320Z</time>
      </trkpt>
      <trkpt lat="45.6559" lon="6.58058">
        <ele>1527</ele>
        <time>2020-12-16T14:36:45.797Z</time>
      </trkpt>
      <trkpt lat="45.65773" lon="6.57959">
        <ele>1483</ele>
        <time>2020-12-16T14:42:59.099Z</time>
      </trkpt>
      <trkpt lat="45.65898" lon="6.579">
        <ele>1456</ele>
        <time>2020-12-16T14:46:48.088Z</time>
      </trkpt>
      <trkpt lat="45.65978" lon="6.57876">
        <ele>1444</ele>
        <time>2020-12-16T14:48:52.491Z</time>
      </trkpt>
      <trkpt lat="45.65987" lon="6.57837">
        <ele>1441</ele>
        <time>2020-12-16T14:49:34.583Z</time>
      </trkpt>
      <trkpt lat="45.66097" lon="6.57834">
        <ele>1431</ele>
        <time>2020-12-16T14:52:09.366Z</time>
      </trkpt>
      <trkpt lat="45.66263" lon="6.57855">
        <ele>1422</ele>
        <time>2020-12-16T14:56:00.077Z</time>
      </trkpt>
      <trkpt lat="45.66327" lon="6.57894">
        <ele>1418</ele>
        <time>2020-12-16T14:57:38.511Z</time>
      </trkpt>
      <trkpt lat="45.66424" lon="6.57925">
        <ele>1410</ele>
        <time>2020-12-16T15:00:01.602Z</time>
      </trkpt>
      <trkpt lat="45.66564" lon="6.57901">
        <ele>1396</ele>
        <time>2020-12-16T15:03:28.670Z</time>
      </trkpt>
      <trkpt lat="45.66784" lon="6.57805">
        <ele>1372</ele>
        <time>2020-12-16T15:09:06.522Z</time>
      </trkpt>
      <trkpt lat="45.66902" lon="6.57807">
        <ele>1361</ele>
        <time>2020-12-16T15:11:56.864Z</time>
      </trkpt>
      <trkpt lat="45.66961" lon="6.57787">
        <ele>1356</ele>
        <time>2020-12-16T15:13:24.658Z</time>
      </trkpt>
      <trkpt lat="45.67084" lon="6.57787">
        <ele>1344</ele>
        <time>2020-12-16T15:16:25.317Z</time>
      </trkpt>
      <trkpt lat="45.67162" lon="6.57856">
        <ele>1334</ele>
        <time>2020-12-16T15:18:44.137Z</time>
      </trkpt>
      <trkpt lat="45.67246" lon="6.57963">
        <ele>1318</ele>
        <time>2020-12-16T15:21:37.628Z</time>
      </trkpt>
      <trkpt lat="45.67318" lon="6.57951">
        <ele>1308</ele>
        <time>2020-12-16T15:23:28.166Z</time>
      </trkpt>
      <trkpt lat="45.67534" lon="6.57857">
        <ele>1281</ele>
        <time>2020-12-16T15:29:06.477Z</time>
      </trkpt>
    </trkseg>
  </trk>
</gpx>